createdAt,value
2023-05-17T00:00:33.188Z,83.30
2023-05-17T00:03:02.815Z,83.20
2023-05-17T00:05:30.033Z,83.80
2023-05-17T00:07:57.298Z,83.00
2023-05-17T00:10:24.481Z,82.90
2023-05-17T00:12:51.635Z,82.80
2023-05-17T00:15:18.874Z,82.70
2023-05-17T00:17:46.021Z,82.60
2023-05-17T00:20:13.395Z,82.60
2023-05-17T00:22:40.963Z,83.10
2023-05-17T00:25:08.279Z,82.40
2023-05-17T00:27:35.496Z,82.40
2023-05-17T00:30:02.857Z,82.30
2023-05-17T00:32:30.267Z,82.40
2023-05-17T00:34:57.506Z,82.30
2023-05-17T00:37:24.650Z,82.30
2023-05-17T00:39:53.014Z,82.30
2023-05-17T00:42:20.170Z,82.40
2023-05-17T00:44:47.314Z,82.10
2023-05-17T00:47:14.473Z,82.20
2023-05-17T00:49:41.658Z,82.30
2023-05-17T00:52:09.034Z,82.10
2023-05-17T00:54:36.634Z,82.10
2023-05-17T00:57:05.550Z,83.20
2023-05-17T00:59:33.659Z,82.60
2023-05-17T01:02:01.507Z,82.70
2023-05-17T01:04:30.316Z,82.70
2023-05-17T01:06:58.474Z,82.70
2023-05-17T01:09:25.660Z,82.70
2023-05-17T01:12:03.452Z,82.80
2023-05-17T01:15:26.378Z,82.70
2023-05-17T01:18:21.873Z,82.60
2023-05-17T01:20:52.766Z,82.50
2023-05-17T01:23:30.325Z,82.20
2023-05-17T01:26:14.896Z,82.20
2023-05-17T01:28:45.525Z,82.00
2023-05-17T01:31:13.198Z,81.90
2023-05-17T01:33:40.456Z,81.80
2023-05-17T01:36:08.157Z,81.70
2023-05-17T01:38:35.273Z,81.50
2023-05-17T01:41:12.779Z,81.50
2023-05-17T01:43:55.030Z,81.50
2023-05-17T01:46:32.151Z,81.30
2023-05-17T01:49:18.084Z,81.30
2023-05-17T01:51:49.269Z,81.20
2023-05-17T01:54:22.641Z,81.00
2023-05-17T01:56:57.875Z,80.40
2023-05-17T01:59:25.606Z,80.60
2023-05-17T02:01:57.136Z,80.10
2023-05-17T02:04:24.315Z,80.00
2023-05-17T02:06:51.474Z,80.00
2023-05-17T02:09:18.629Z,80.00
2023-05-17T02:11:45.958Z,80.70
2023-05-17T02:14:13.062Z,81.00
2023-05-17T02:16:40.331Z,80.80
2023-05-17T02:19:09.063Z,80.70
2023-05-17T02:21:36.312Z,80.90
2023-05-17T02:24:03.742Z,80.50
2023-05-17T02:26:31.644Z,80.50
2023-05-17T02:28:58.941Z,80.70
2023-05-17T02:31:26.925Z,80.50
2023-05-17T02:33:54.663Z,80.60
2023-05-17T02:36:21.864Z,80.80
2023-05-17T02:38:48.947Z,80.70
2023-05-17T02:41:16.050Z,80.50
2023-05-17T02:43:46.107Z,80.50
2023-05-17T02:46:13.250Z,80.50
2023-05-17T02:48:40.358Z,80.40
2023-05-17T02:51:07.497Z,80.30
2023-05-17T02:53:34.596Z,80.00
2023-05-17T02:56:01.721Z,80.10
2023-05-17T02:58:28.885Z,80.10
2023-05-17T03:00:56.004Z,79.90
2023-05-17T03:03:23.174Z,80.00
2023-05-17T03:05:50.369Z,79.90
2023-05-17T03:08:17.488Z,79.70
2023-05-17T03:10:44.699Z,79.60
2023-05-17T03:13:11.858Z,79.30
2023-05-17T03:15:38.980Z,79.50
2023-05-17T03:18:06.393Z,79.30
2023-05-17T03:20:33.566Z,79.60
2023-05-17T03:23:00.754Z,79.20
2023-05-17T03:25:28.072Z,78.90
2023-05-17T03:27:55.333Z,78.90
2023-05-17T03:30:22.530Z,78.90
2023-05-17T03:32:49.807Z,78.80
2023-05-17T03:35:17.035Z,78.80
2023-05-17T03:37:44.129Z,78.90
2023-05-17T03:40:11.659Z,79.00
2023-05-17T03:42:38.773Z,79.00
2023-05-17T03:45:06.506Z,79.00
2023-05-17T03:47:33.625Z,79.00
2023-05-17T03:50:00.757Z,78.90
2023-05-17T03:52:27.839Z,78.80
2023-05-17T03:54:54.937Z,79.70
2023-05-17T03:57:22.433Z,80.10
2023-05-17T03:59:49.580Z,80.10
2023-05-17T04:02:16.827Z,80.00
2023-05-17T04:04:50.933Z,80.10
2023-05-17T04:07:18.403Z,79.70
2023-05-17T04:09:45.556Z,79.60
2023-05-17T04:12:12.685Z,79.60
2023-05-17T04:14:40.049Z,79.60
2023-05-17T04:17:07.265Z,79.50
2023-05-17T04:19:34.697Z,79.60
2023-05-17T04:22:01.826Z,79.40
2023-05-17T04:24:28.985Z,79.10
2023-05-17T04:26:56.906Z,79.10
2023-05-17T04:29:24.093Z,79.20
2023-05-17T04:31:51.502Z,79.00
2023-05-17T04:34:18.725Z,78.90
2023-05-17T04:36:45.832Z,79.00
2023-05-17T04:39:12.911Z,78.80
2023-05-17T04:41:40.041Z,78.60
2023-05-17T04:44:08.104Z,78.40
2023-05-17T04:46:35.276Z,78.10
2023-05-17T04:49:03.254Z,78.00
2023-05-17T04:51:30.866Z,77.80
2023-05-17T04:54:00.941Z,77.60
2023-05-17T04:56:29.069Z,77.40
2023-05-17T04:58:56.207Z,76.80
2023-05-17T05:01:23.375Z,77.10
2023-05-17T05:03:50.623Z,77.00
2023-05-17T05:06:17.818Z,77.00
2023-05-17T05:08:45.095Z,77.20
2023-05-17T05:11:12.281Z,76.90
2023-05-17T05:13:41.580Z,77.00
2023-05-17T05:16:08.744Z,77.00
2023-05-17T05:18:36.482Z,77.00
2023-05-17T05:21:03.826Z,76.80
2023-05-17T05:23:30.989Z,76.80
2023-05-17T05:25:58.101Z,76.70
2023-05-17T05:28:25.318Z,76.60
2023-05-17T05:31:00.888Z,76.60
2023-05-17T05:33:28.198Z,76.50
2023-05-17T05:35:55.401Z,76.20
2023-05-17T05:38:22.683Z,76.30
2023-05-17T05:40:49.846Z,76.10
2023-05-17T05:43:16.953Z,76.00
2023-05-17T05:45:47.164Z,76.10
2023-05-17T05:48:14.540Z,76.40
2023-05-17T05:50:44.063Z,76.10
2023-05-17T05:53:18.612Z,76.00
2023-05-17T05:55:46.971Z,76.10
2023-05-17T05:58:14.132Z,75.60
2023-05-17T06:00:41.620Z,75.40
2023-05-17T06:03:08.864Z,75.40
2023-05-17T06:05:36.173Z,75.40
2023-05-17T06:08:03.441Z,75.30
2023-05-17T06:10:30.971Z,75.50
2023-05-17T06:12:58.449Z,75.40
2023-05-17T06:15:27.006Z,75.30
2023-05-17T06:17:54.232Z,75.30
2023-05-17T06:20:21.424Z,75.60
2023-05-17T06:22:48.518Z,75.90
2023-05-17T06:25:16.019Z,75.80
2023-05-17T06:27:43.711Z,76.10
2023-05-17T06:30:11.456Z,76.20
2023-05-17T06:32:38.789Z,76.40
2023-05-17T06:35:06.845Z,76.30
2023-05-17T06:37:34.011Z,76.30
2023-05-17T06:40:16.104Z,76.60
2023-05-17T06:42:45.340Z,76.80
2023-05-17T06:45:12.967Z,77.20
2023-05-17T06:47:40.417Z,77.00
2023-05-17T06:50:08.632Z,77.20
2023-05-17T06:52:36.204Z,77.20
2023-05-17T06:55:03.527Z,77.30
2023-05-17T06:57:30.751Z,77.40
2023-05-17T06:59:57.953Z,77.30
2023-05-17T07:02:25.138Z,77.30
2023-05-17T07:04:52.333Z,77.30
2023-05-17T07:07:20.804Z,77.30
2023-05-17T07:09:47.913Z,77.50
2023-05-17T07:12:15.118Z,77.50
2023-05-17T07:14:42.220Z,77.40
2023-05-17T07:17:11.320Z,77.50
2023-05-17T07:19:38.699Z,77.50
2023-05-17T07:22:06.381Z,77.20
2023-05-17T07:24:35.444Z,77.20
2023-05-17T07:27:02.611Z,77.50
2023-05-17T07:29:29.749Z,77.40
2023-05-17T07:31:59.564Z,77.50
2023-05-17T07:34:26.749Z,77.70
2023-05-17T07:36:53.917Z,77.40
2023-05-17T07:39:21.046Z,77.50
2023-05-17T07:41:48.181Z,77.30
2023-05-17T07:44:15.412Z,77.30
2023-05-17T07:46:42.565Z,77.50
2023-05-17T07:49:09.929Z,77.50
2023-05-17T07:51:37.100Z,77.20
2023-05-17T07:54:04.533Z,77.20
2023-05-17T07:56:34.446Z,77.30
2023-05-17T07:59:01.708Z,77.00
2023-05-17T08:01:28.880Z,77.20
2023-05-17T08:03:56.033Z,77.10
2023-05-17T08:06:23.229Z,77.00
2023-05-17T08:08:50.428Z,77.20
2023-05-17T08:11:18.209Z,77.10
2023-05-17T08:13:45.535Z,77.10
2023-05-17T08:16:14.676Z,76.10
2023-05-17T08:18:43.515Z,74.80
2023-05-17T08:21:11.480Z,75.30
2023-05-17T08:23:39.347Z,75.30
2023-05-17T08:26:06.658Z,75.40
2023-05-17T08:28:33.996Z,75.70
2023-05-17T08:31:01.217Z,76.10
2023-05-17T08:33:28.569Z,76.00
2023-05-17T08:35:57.947Z,76.40
2023-05-17T08:38:25.119Z,77.20
2023-05-17T08:40:54.553Z,76.00
2023-05-17T08:43:24.218Z,76.00
2023-05-17T08:45:54.152Z,74.60
2023-05-17T08:48:21.820Z,73.10
2023-05-17T08:50:51.149Z,74.00
2023-05-17T08:53:18.542Z,74.00
2023-05-17T08:55:50.111Z,73.10
2023-05-17T08:58:21.958Z,73.00
2023-05-17T09:00:49.890Z,72.80
2023-05-17T09:03:18.943Z,73.50
2023-05-17T09:05:46.390Z,75.20
2023-05-17T09:08:14.144Z,76.00
2023-05-17T09:10:42.291Z,75.90
2023-05-17T09:13:13.047Z,75.90
2023-05-17T09:15:44.300Z,75.60
2023-05-17T09:18:17.837Z,75.80
2023-05-17T09:20:55.568Z,76.00
2023-05-17T09:23:23.270Z,76.00
2023-05-17T09:25:50.412Z,77.10
2023-05-17T09:28:20.444Z,77.50
2023-05-17T09:30:49.196Z,77.60
2023-05-17T09:33:18.574Z,76.90
2023-05-17T09:35:46.670Z,77.40
2023-05-17T09:38:14.360Z,77.40
2023-05-17T09:40:43.382Z,77.80
2023-05-17T09:43:12.267Z,77.70
2023-05-17T09:45:39.670Z,77.70
2023-05-17T09:48:14.443Z,78.20
2023-05-17T09:50:51.659Z,77.90
2023-05-17T09:53:29.975Z,78.00
2023-05-17T09:55:59.792Z,78.00
2023-05-17T09:58:32.543Z,78.00
2023-05-17T10:01:01.895Z,77.90
2023-05-17T10:03:39.054Z,77.70
2023-05-17T10:06:07.528Z,77.80
2023-05-17T10:08:36.548Z,77.90
2023-05-17T10:11:07.915Z,77.70
2023-05-17T10:13:41.928Z,77.60
2023-05-17T10:16:09.412Z,77.40
2023-05-17T10:18:39.855Z,77.40
2023-05-17T10:21:11.404Z,77.30
2023-05-17T10:23:40.696Z,78.00
2023-05-17T10:26:09.264Z,78.00
2023-05-17T10:28:37.504Z,77.90
2023-05-17T10:31:05.309Z,77.80
2023-05-17T10:33:33.300Z,77.80
2023-05-17T10:36:03.049Z,77.70
2023-05-17T10:38:42.028Z,77.70
2023-05-17T10:41:12.939Z,77.50
2023-05-17T10:43:42.377Z,77.30
2023-05-17T10:46:15.681Z,77.20
2023-05-17T10:48:44.271Z,77.20
2023-05-17T10:51:11.971Z,77.30
2023-05-17T10:54:11.849Z,77.40
2023-05-17T10:56:41.426Z,77.50
2023-05-17T10:59:21.799Z,77.50
2023-05-17T11:01:55.358Z,77.70
2023-05-17T11:04:25.677Z,77.60
2023-05-17T11:07:16.761Z,77.40
2023-05-17T11:09:45.098Z,77.50
2023-05-17T11:12:13.834Z,77.60
2023-05-17T11:14:52.436Z,77.50
2023-05-17T11:17:21.962Z,77.50
2023-05-17T11:19:55.990Z,77.60
2023-05-17T11:22:27.554Z,77.40
2023-05-17T11:24:57.799Z,77.40
2023-05-17T11:27:28.697Z,77.50
2023-05-17T11:29:56.641Z,77.70
2023-05-17T11:32:33.053Z,78.00
2023-05-17T11:35:01.083Z,77.90
2023-05-17T11:37:29.810Z,77.70
2023-05-17T11:40:08.338Z,77.60
2023-05-17T11:42:37.230Z,77.70
2023-05-17T11:45:05.006Z,77.50
2023-05-17T11:47:33.196Z,77.30
2023-05-17T11:50:02.786Z,77.30
2023-05-17T11:52:31.308Z,77.20
2023-05-17T11:54:59.025Z,77.20
2023-05-17T11:57:32.887Z,77.30
2023-05-17T12:00:01.497Z,77.30
2023-05-17T12:02:33.010Z,77.30
2023-05-17T12:05:00.431Z,76.90
2023-05-17T12:07:28.048Z,77.10
2023-05-17T12:09:55.295Z,76.90
2023-05-17T12:12:23.517Z,76.90
2023-05-17T12:14:50.950Z,76.90
2023-05-17T12:17:41.599Z,76.80
2023-05-17T12:20:09.812Z,76.70
2023-05-17T12:22:53.519Z,76.60
2023-05-17T12:25:29.560Z,76.50
2023-05-17T12:28:16.771Z,76.40
2023-05-17T12:30:44.346Z,76.30
2023-05-17T12:33:11.746Z,76.30
2023-05-17T12:35:39.090Z,76.30
2023-05-17T12:38:06.298Z,76.40
2023-05-17T12:40:33.470Z,76.50
2023-05-17T12:43:03.973Z,76.60
2023-05-17T12:45:31.498Z,76.60
2023-05-17T12:48:00.487Z,76.60
2023-05-17T12:50:31.212Z,76.70
2023-05-17T12:52:58.762Z,76.50
2023-05-17T12:55:26.261Z,76.50
2023-05-17T12:57:54.472Z,76.40
2023-05-17T13:00:21.761Z,76.40
2023-05-17T13:02:48.997Z,76.30
2023-05-17T13:05:23.006Z,76.20
2023-05-17T13:07:50.307Z,76.10
2023-05-17T13:10:26.387Z,76.10
2023-05-17T13:12:58.555Z,76.00
2023-05-17T13:15:33.495Z,76.00
2023-05-17T13:18:12.055Z,76.10
2023-05-17T13:20:39.316Z,76.10
2023-05-17T13:23:06.867Z,76.20
2023-05-17T13:25:34.393Z,76.10
2023-05-17T13:28:02.420Z,77.10
2023-05-17T13:30:30.169Z,76.40
2023-05-17T13:32:57.579Z,76.20
2023-05-17T13:35:24.836Z,76.20
2023-05-17T13:37:51.989Z,76.10
2023-05-17T13:40:19.506Z,76.40
2023-05-17T13:42:47.194Z,76.10
2023-05-17T13:45:14.342Z,76.20
2023-05-17T13:47:41.848Z,76.10
2023-05-17T13:50:10.265Z,76.20
2023-05-17T13:52:37.419Z,76.10
2023-05-17T13:55:05.197Z,76.20
2023-05-17T13:57:32.527Z,76.20
2023-05-17T13:59:59.647Z,76.20
2023-05-17T14:02:26.780Z,76.10
2023-05-17T14:04:54.232Z,76.10
2023-05-17T14:07:21.342Z,76.80
2023-05-17T14:09:48.502Z,76.10
2023-05-17T14:12:16.131Z,76.10
2023-05-17T14:14:43.207Z,76.10
2023-05-17T14:17:10.302Z,76.10
2023-05-17T14:19:37.528Z,75.90
2023-05-17T14:22:04.767Z,76.00
2023-05-17T14:24:32.232Z,76.00
2023-05-17T14:27:00.459Z,75.90
2023-05-17T14:29:27.609Z,75.90
2023-05-17T14:31:54.785Z,76.10
2023-05-17T14:34:22.136Z,76.10
2023-05-17T14:36:50.848Z,75.90
2023-05-17T14:39:17.998Z,75.80
2023-05-17T14:41:45.229Z,75.70
2023-05-17T14:44:12.633Z,75.60
2023-05-17T14:46:39.766Z,75.60
2023-05-17T14:49:08.913Z,75.60
2023-05-17T14:51:36.420Z,75.50
2023-05-17T14:54:03.629Z,75.40
2023-05-17T14:56:30.798Z,75.40
2023-05-17T14:58:58.212Z,75.50
2023-05-17T15:01:25.360Z,75.40
2023-05-17T15:03:52.544Z,75.20
2023-05-17T15:06:24.686Z,75.10
2023-05-17T15:08:52.545Z,75.40
2023-05-17T15:11:20.017Z,75.10
2023-05-17T15:13:47.611Z,75.20
2023-05-17T15:16:14.767Z,74.30
2023-05-17T15:18:42.033Z,72.70
2023-05-17T15:21:10.245Z,72.00
2023-05-17T15:23:37.574Z,71.20
2023-05-17T15:26:04.691Z,71.70
2023-05-17T15:28:31.817Z,72.90
2023-05-17T15:31:02.991Z,72.00
2023-05-17T15:33:30.877Z,72.10
2023-05-17T15:35:58.346Z,73.70
2023-05-17T15:38:25.942Z,71.90
2023-05-17T15:41:05.760Z,73.10
2023-05-17T15:43:34.749Z,70.60
2023-05-17T15:46:01.971Z,71.60
2023-05-17T15:48:29.291Z,72.10
2023-05-17T15:50:56.890Z,72.10
2023-05-17T15:53:24.804Z,73.10
2023-05-17T15:55:52.020Z,74.10
2023-05-17T15:58:20.234Z,74.70
2023-05-17T16:00:47.556Z,75.10
2023-05-17T16:03:15.399Z,73.60
2023-05-17T16:05:43.067Z,73.00
2023-05-17T16:08:10.784Z,74.00
2023-05-17T16:10:38.949Z,74.20
2023-05-17T16:13:06.829Z,72.10
2023-05-17T16:15:34.257Z,72.50
2023-05-17T16:18:01.427Z,73.00
2023-05-17T16:20:28.762Z,74.80
2023-05-17T16:22:56.100Z,75.70
2023-05-17T16:25:24.417Z,76.50
2023-05-17T16:27:51.732Z,76.40
2023-05-17T16:30:19.510Z,76.30
2023-05-17T16:32:50.030Z,76.50
2023-05-17T16:35:18.383Z,76.40
2023-05-17T16:37:47.361Z,76.30
2023-05-17T16:40:14.670Z,76.60
2023-05-17T16:42:42.800Z,75.70
2023-05-17T16:45:10.204Z,75.10
2023-05-17T16:47:37.432Z,74.20
2023-05-17T16:50:05.614Z,74.40
2023-05-17T16:52:32.758Z,75.20
2023-05-17T16:55:03.383Z,76.20
2023-05-17T16:57:34.074Z,76.20
2023-05-17T17:00:01.426Z,76.50
2023-05-17T17:02:28.801Z,76.50
2023-05-17T17:04:56.033Z,76.70
2023-05-17T17:07:23.169Z,76.80
2023-05-17T17:09:50.271Z,76.80
2023-05-17T17:12:24.763Z,76.30
2023-05-17T17:14:53.346Z,76.30
2023-05-17T17:17:20.493Z,76.30
2023-05-17T17:19:47.640Z,76.30
2023-05-17T17:22:16.109Z,76.30
2023-05-17T17:24:44.375Z,76.20
2023-05-17T17:27:11.558Z,76.20
2023-05-17T17:29:38.767Z,76.10
2023-05-17T17:32:06.687Z,76.10
2023-05-17T17:34:33.820Z,76.10
2023-05-17T17:37:00.901Z,76.10
2023-05-17T17:39:28.002Z,76.10
2023-05-17T17:41:55.144Z,75.90
2023-05-17T17:44:22.291Z,75.90
2023-05-17T17:46:49.649Z,75.80
2023-05-17T17:49:16.857Z,75.70
2023-05-17T17:51:44.012Z,75.70
2023-05-17T17:54:11.111Z,75.70
2023-05-17T17:56:38.218Z,75.60
2023-05-17T17:59:05.316Z,75.90
2023-05-17T18:01:34.915Z,76.10
2023-05-17T18:04:02.127Z,74.90
2023-05-17T18:06:29.254Z,75.40
2023-05-17T18:08:57.705Z,75.90
2023-05-17T18:11:24.836Z,76.20
2023-05-17T18:13:51.954Z,76.80
2023-05-17T18:16:19.062Z,76.80
2023-05-17T18:18:46.879Z,77.20
2023-05-17T18:21:14.585Z,77.40
2023-05-17T18:23:41.836Z,77.70
2023-05-17T18:26:09.118Z,77.80
2023-05-17T18:28:42.293Z,77.80
2023-05-17T18:31:10.633Z,77.80
2023-05-17T18:33:37.769Z,78.10
2023-05-17T18:36:05.310Z,78.40
2023-05-17T18:38:32.431Z,78.80
2023-05-17T18:40:59.517Z,79.00
2023-05-17T18:43:27.927Z,79.20
2023-05-17T18:45:55.397Z,79.40
2023-05-17T18:48:23.135Z,79.80
2023-05-17T18:50:50.257Z,79.60
2023-05-17T18:53:17.348Z,79.60
2023-05-17T18:55:44.484Z,79.60
2023-05-17T18:58:11.588Z,79.80
2023-05-17T19:00:38.755Z,80.20
2023-05-17T19:03:06.012Z,80.20
2023-05-17T19:05:33.152Z,80.10
2023-05-17T19:08:00.226Z,80.20
2023-05-17T19:10:27.466Z,80.10
2023-05-17T19:12:54.643Z,80.10
2023-05-17T19:15:21.760Z,80.00
2023-05-17T19:17:49.064Z,79.90
2023-05-17T19:20:16.679Z,79.80
2023-05-17T19:22:43.846Z,79.80
2023-05-17T19:25:11.018Z,79.60
2023-05-17T19:27:38.112Z,79.50
2023-05-17T19:30:05.658Z,79.00
2023-05-17T19:32:32.987Z,79.30
2023-05-17T19:35:01.324Z,79.20
2023-05-17T19:37:28.710Z,79.20
2023-05-17T19:39:55.905Z,79.10
2023-05-17T19:42:23.006Z,79.10
2023-05-17T19:44:50.171Z,79.00
2023-05-17T19:47:17.327Z,78.90
2023-05-17T19:49:44.418Z,78.80
2023-05-17T19:52:11.548Z,78.70
2023-05-17T19:54:38.766Z,78.70
2023-05-17T19:57:06.207Z,78.60
2023-05-17T19:59:33.613Z,78.50
2023-05-17T20:02:00.932Z,78.30
2023-05-17T20:04:28.107Z,78.70
2023-05-17T20:06:55.342Z,78.80
2023-05-17T20:09:24.591Z,79.00
2023-05-17T20:11:53.329Z,79.10
2023-05-17T20:14:21.258Z,78.70
2023-05-17T20:16:48.402Z,79.00
2023-05-17T20:19:15.886Z,78.60
2023-05-17T20:21:43.164Z,78.30
2023-05-17T20:24:10.725Z,78.00
2023-05-17T20:26:37.951Z,77.90
2023-05-17T20:29:07.105Z,77.90
2023-05-17T20:31:35.675Z,77.80
2023-05-17T20:34:04.695Z,78.40
2023-05-17T20:36:32.077Z,77.70
2023-05-17T20:38:59.177Z,77.60
2023-05-17T20:41:26.319Z,77.90
2023-05-17T20:43:53.636Z,78.80
2023-05-17T20:46:20.921Z,78.80
2023-05-17T20:48:49.622Z,79.40
2023-05-17T20:51:17.944Z,78.40
2023-05-17T20:53:46.314Z,78.20
2023-05-17T20:56:19.143Z,78.60
2023-05-17T20:58:47.597Z,77.90
2023-05-17T21:01:14.809Z,77.70
2023-05-17T21:03:43.123Z,77.60
2023-05-17T21:06:10.676Z,77.40
2023-05-17T21:08:38.387Z,77.20
2023-05-17T21:11:05.572Z,77.20
2023-05-17T21:13:32.768Z,77.30
2023-05-17T21:16:00.236Z,76.90
2023-05-17T21:18:27.460Z,76.80
2023-05-17T21:20:55.370Z,76.80
2023-05-17T21:23:22.453Z,76.70
2023-05-17T21:25:49.571Z,76.50
2023-05-17T21:28:16.794Z,76.70
2023-05-17T21:30:43.918Z,76.30
2023-05-17T21:33:11.282Z,76.20
2023-05-17T21:35:38.514Z,76.50
2023-05-17T21:38:05.644Z,76.30
2023-05-17T21:40:33.024Z,76.40
2023-05-17T21:43:00.395Z,76.50
2023-05-17T21:45:27.568Z,76.40
2023-05-17T21:47:54.782Z,76.70
2023-05-17T21:50:21.937Z,76.40
2023-05-17T21:52:49.096Z,76.40
2023-05-17T21:55:16.393Z,76.40
2023-05-17T21:57:43.607Z,76.40
2023-05-17T22:00:15.275Z,76.40
2023-05-17T22:02:44.762Z,76.30
2023-05-17T22:05:12.685Z,76.20
2023-05-17T22:07:39.806Z,76.10
2023-05-17T22:10:09.551Z,76.10
2023-05-17T22:12:38.079Z,76.00
2023-05-17T22:15:05.969Z,76.00
2023-05-17T22:17:43.200Z,75.90
2023-05-17T22:20:16.938Z,75.80
2023-05-17T22:22:44.186Z,75.60
2023-05-17T22:25:11.442Z,76.60
2023-05-17T22:27:38.545Z,75.80
2023-05-17T22:30:07.347Z,75.60
2023-05-17T22:32:34.556Z,75.50
2023-05-17T22:35:01.690Z,75.40
2023-05-17T22:37:30.248Z,75.60
2023-05-17T22:39:57.383Z,75.30
2023-05-17T22:42:24.504Z,75.40
2023-05-17T22:44:51.688Z,75.40
2023-05-17T22:47:22.884Z,75.30
2023-05-17T22:49:52.470Z,75.50
2023-05-17T22:52:20.036Z,75.20
2023-05-17T22:54:47.312Z,75.20
2023-05-17T22:57:14.486Z,75.10
2023-05-17T22:59:43.749Z,75.50
2023-05-17T23:02:14.046Z,74.80
2023-05-17T23:04:41.315Z,75.50
2023-05-17T23:07:09.768Z,74.70
2023-05-17T23:09:40.745Z,74.40
2023-05-17T23:12:13.751Z,74.30
2023-05-17T23:14:40.881Z,74.10
2023-05-17T23:17:08.456Z,73.80
2023-05-17T23:19:35.848Z,73.40
2023-05-17T23:22:03.966Z,73.30
2023-05-17T23:24:31.478Z,72.90
2023-05-17T23:26:58.916Z,72.20
2023-05-17T23:29:26.229Z,71.60
2023-05-17T23:31:53.623Z,70.50
2023-05-17T23:34:21.908Z,72.10
2023-05-17T23:36:48.998Z,72.90
2023-05-17T23:39:16.094Z,72.90
2023-05-17T23:41:43.301Z,73.00
2023-05-17T23:44:11.006Z,72.90
2023-05-17T23:46:38.253Z,72.70
2023-05-17T23:49:05.755Z,73.10
2023-05-17T23:51:34.624Z,72.70
2023-05-17T23:54:01.900Z,72.60
2023-05-17T23:56:29.137Z,73.00
2023-05-17T23:58:56.228Z,73.10
